This is the latest recevied weather packets stored in our database for station/object IW4ENL-7. If no packets are shown the sender has not sent any weather packets the latest 10 day(s).
| Time | Temp. | Humidity | Pressure | Rain* | Wind** | Luminosity | Snow |
|---|---|---|---|---|---|---|---|
| 1777297607 | 26.67° C | 42% | 965 hPa | - | - | - | - |
| 1777297425 | 27.22° C | 41% | 965 hPa | - | - | - | - |
| 1777297242 | 26.67° C | 41% | 965 hPa | - | - | - | - |
| 1777297059 | 26.67° C | 42% | 965 hPa | - | - | - | - |
| 1777296876 | 27.22° C | 40% | 965 hPa | - | - | - | - |
| 1777296693 | 26.67° C | 42% | 965 hPa | - | - | - | - |
| 1777296510 | 26.67° C | 42% | 965 hPa | - | - | - | - |
| 1777296144 | 28.89° C | 38% | 965 hPa | - | - | - | - |
| 1777295960 | 27.78° C | 41% | 965 hPa | - | - | - | - |
| 1777295777 | 26.67° C | 42% | 965 hPa | - | - | - | - |
| 1777295412 | 27.22° C | 42% | 965 hPa | - | - | - | - |
| 1777295229 | 27.22° C | 41% | 965 hPa | - | - | - | - |
| 1777295046 | 27.78° C | 41% | 965 hPa | - | - | - | - |
| 1777294863 | 28.33° C | 41% | 965 hPa | - | - | - | - |
| 1777294680 | 27.78° C | 41% | 965 hPa | - | - | - | - |
| 1777294497 | 27.78° C | 41% | 965 hPa | - | - | - | - |
| 1777294131 | 27.78° C | 41% | 965 hPa | - | - | - | - |
| 1777293948 | 27.22° C | 42% | 965 hPa | - | - | - | - |
| 1777293582 | 26.67° C | 42% | 965 hPa | - | - | - | - |
| 1777293399 | 27.22° C | 42% | 965 hPa | - | - | - | - |
| 1777293216 | 26.67° C | 43% | 965 hPa | - | - | - | - |
| 1777292850 | 26.67° C | 43% | 966 hPa | - | - | - | - |
| 1777292667 | 27.22° C | 42% | 965 hPa | - | - | - | - |
| 1777292484 | 27.78° C | 41% | 966 hPa | - | - | - | - |
| 1777292301 | 28.33° C | 41% | 966 hPa | - | - | - | - |
* Rain since midnight (hover to see other rain measurements)
** Current wind speed in m/s (hover to see current wind gust speed)